createdAt,value
2018-03-25T00:00:50.580Z,28.03
2018-03-25T00:03:19.450Z,29.60
2018-03-25T00:05:48.751Z,24.77
2018-03-25T00:08:16.781Z,26.93
2018-03-25T00:10:44.897Z,27.77
2018-03-25T00:13:13.045Z,27.20
2018-03-25T00:15:41.166Z,28.37
2018-03-25T00:18:09.255Z,29.07
2018-03-25T00:20:37.308Z,31.87
2018-03-25T00:23:05.339Z,27.10
2018-03-25T00:25:33.401Z,27.53
2018-03-25T00:28:01.433Z,28.07
2018-03-25T00:30:29.573Z,25.70
2018-03-25T00:32:57.607Z,24.47
2018-03-25T00:35:25.661Z,26.37
2018-03-25T00:37:58.467Z,28.23
2018-03-25T00:40:26.500Z,27.77
2018-03-25T00:42:55.321Z,26.57
2018-03-25T00:45:23.375Z,29.47
2018-03-25T00:47:51.488Z,28.43
2018-03-25T00:50:19.543Z,29.90
2018-03-25T00:52:47.581Z,29.33
2018-03-25T00:55:15.628Z,30.50
2018-03-25T00:57:44.431Z,28.50
2018-03-25T01:00:13.248Z,30.13
2018-03-25T01:02:41.280Z,27.67
2018-03-25T01:05:09.416Z,31.00
2018-03-25T01:07:37.507Z,26.63
2018-03-25T01:10:05.569Z,29.40
2018-03-25T01:12:34.383Z,27.97
2018-03-25T01:15:02.476Z,28.00
2018-03-25T01:17:30.570Z,29.27
2018-03-25T01:19:58.631Z,29.00
2018-03-25T01:22:27.444Z,28.93
2018-03-25T01:24:55.480Z,25.90
2018-03-25T01:27:23.527Z,28.67
2018-03-25T01:29:51.564Z,27.53
2018-03-25T01:32:19.620Z,29.77
2018-03-25T01:34:47.664Z,28.43
2018-03-25T01:37:15.752Z,28.97
2018-03-25T01:39:43.788Z,28.53
2018-03-25T01:42:11.847Z,28.33
2018-03-25T01:44:39.883Z,31.17
2018-03-25T01:47:08.679Z,28.47
2018-03-25T01:49:37.496Z,29.30
2018-03-25T01:52:06.408Z,27.93
2018-03-25T01:54:34.533Z,27.13
2018-03-25T01:57:02.617Z,29.67
2018-03-25T01:59:30.623Z,27.27
2018-03-25T02:01:58.657Z,27.43
2018-03-25T02:04:26.702Z,27.17
2018-03-25T02:06:54.816Z,27.77
2018-03-25T02:09:22.856Z,28.30
2018-03-25T02:11:50.896Z,28.83
2018-03-25T02:14:18.968Z,29.10
2018-03-25T02:16:47.020Z,32.40
2018-03-25T02:19:16.576Z,30.03
2018-03-25T02:21:44.659Z,30.53
2018-03-25T02:24:12.700Z,34.10
2018-03-25T02:26:40.759Z,30.57
2018-03-25T02:29:08.796Z,30.77
2018-03-25T02:31:37.625Z,30.83
2018-03-25T02:34:05.697Z,29.60
2018-03-25T02:36:33.736Z,27.90
2018-03-25T02:39:01.873Z,29.80
2018-03-25T02:41:29.915Z,30.00
2018-03-25T02:43:59.563Z,34.20
2018-03-25T02:46:28.364Z,30.93
2018-03-25T02:48:57.177Z,28.83
2018-03-25T02:51:25.225Z,34.90
2018-03-25T02:53:53.262Z,34.13
2018-03-25T02:56:21.303Z,31.80
2018-03-25T02:58:50.109Z,33.90
2018-03-25T03:01:18.937Z,34.33
2018-03-25T03:03:46.972Z,32.27
2018-03-25T03:06:15.024Z,32.83
2018-03-25T03:08:43.063Z,32.67
2018-03-25T03:11:11.879Z,28.33
2018-03-25T03:13:39.916Z,33.43
2018-03-25T03:16:07.973Z,33.50
2018-03-25T03:18:36.016Z,31.40
2018-03-25T03:21:04.812Z,31.97
2018-03-25T03:23:33.631Z,32.73
2018-03-25T03:26:02.552Z,31.37
2018-03-25T03:28:30.596Z,31.67
2018-03-25T03:30:58.633Z,34.20
2018-03-25T03:33:26.680Z,32.80
2018-03-25T03:35:55.480Z,33.07
2018-03-25T03:38:24.296Z,32.40
2018-03-25T03:40:53.109Z,33.87
2018-03-25T03:43:21.156Z,31.53
2018-03-25T03:45:49.216Z,30.83
2018-03-25T03:48:17.248Z,30.37
2018-03-25T03:50:46.054Z,28.07
2018-03-25T03:53:14.113Z,30.53
2018-03-25T03:55:42.150Z,30.53
2018-03-25T03:58:10.212Z,28.90
2018-03-25T04:00:38.260Z,33.50
2018-03-25T04:03:06.304Z,30.83
2018-03-25T04:05:34.344Z,30.20
2018-03-25T04:08:03.268Z,29.87
2018-03-25T04:10:31.349Z,30.63
2018-03-25T04:12:59.380Z,30.73
2018-03-25T04:15:27.452Z,29.07
2018-03-25T04:17:55.508Z,29.53
2018-03-25T04:20:23.538Z,29.57
2018-03-25T04:22:51.592Z,28.60
2018-03-25T04:25:19.655Z,30.90
2018-03-25T04:27:47.708Z,30.43
2018-03-25T04:30:15.764Z,28.00
2018-03-25T04:32:43.792Z,33.70
2018-03-25T04:35:12.616Z,28.37
2018-03-25T04:37:40.673Z,32.30
2018-03-25T04:40:09.475Z,34.70
2018-03-25T04:42:39.041Z,31.97
2018-03-25T04:45:07.071Z,29.43
2018-03-25T04:47:35.867Z,33.90
2018-03-25T04:50:04.692Z,30.57
2018-03-25T04:52:33.499Z,32.33
2018-03-25T04:55:01.576Z,30.00
2018-03-25T04:57:30.388Z,34.87
2018-03-25T04:59:58.471Z,32.90
2018-03-25T05:02:26.523Z,33.07
2018-03-25T05:04:54.648Z,31.13
2018-03-25T05:07:22.700Z,31.83
2018-03-25T05:09:50.740Z,31.30
2018-03-25T05:12:18.901Z,34.93
2018-03-25T05:14:46.961Z,30.93
2018-03-25T05:17:14.996Z,32.43
2018-03-25T05:19:43.035Z,32.63
2018-03-25T05:22:11.964Z,33.93
2018-03-25T05:24:40.004Z,33.23
2018-03-25T05:27:08.051Z,33.37
2018-03-25T05:29:36.109Z,36.27
2018-03-25T05:32:04.160Z,34.50
2018-03-25T05:34:32.209Z,32.53
2018-03-25T05:37:00.268Z,33.40
2018-03-25T05:39:28.340Z,32.43
2018-03-25T05:41:56.437Z,31.33
2018-03-25T05:44:24.482Z,31.33
2018-03-25T05:46:52.605Z,30.23
2018-03-25T05:49:20.664Z,28.90
2018-03-25T05:51:48.697Z,33.70
2018-03-25T05:54:16.856Z,33.47
2018-03-25T05:56:44.945Z,34.23
2018-03-25T05:59:12.992Z,32.27
2018-03-25T06:01:41.061Z,34.30
2018-03-25T06:04:09.090Z,30.60
2018-03-25T06:06:37.175Z,32.63
2018-03-25T06:09:05.238Z,32.47
2018-03-25T06:11:33.343Z,31.27
2018-03-25T06:14:01.437Z,27.77
2018-03-25T06:16:29.468Z,30.03
2018-03-25T06:18:57.524Z,29.30
2018-03-25T06:21:25.572Z,31.87
2018-03-25T06:23:54.392Z,32.00
2018-03-25T06:26:22.430Z,33.07
2018-03-25T06:28:50.481Z,31.93
2018-03-25T06:31:18.516Z,30.13
2018-03-25T06:33:47.316Z,33.07
2018-03-25T06:36:16.140Z,30.33
2018-03-25T06:38:44.182Z,29.47
2018-03-25T06:41:12.224Z,31.60
2018-03-25T06:43:40.295Z,28.83
2018-03-25T06:46:08.328Z,31.07
2018-03-25T06:48:36.410Z,30.70
2018-03-25T06:51:04.436Z,32.63
2018-03-25T06:53:33.451Z,37.13
2018-03-25T06:56:01.489Z,32.57
2018-03-25T06:58:29.556Z,35.67
2018-03-25T07:00:57.605Z,36.97
2018-03-25T07:03:26.447Z,42.60
2018-03-25T07:05:54.600Z,43.37
2018-03-25T07:08:22.632Z,48.70
2018-03-25T07:10:50.676Z,54.43
2018-03-25T07:13:18.771Z,49.10
2018-03-25T07:15:46.839Z,39.90
2018-03-25T07:18:14.895Z,40.00
2018-03-25T07:20:43.730Z,35.93
2018-03-25T07:23:11.816Z,31.13
2018-03-25T07:25:39.937Z,33.83
2018-03-25T07:28:08.010Z,33.33
2018-03-25T07:30:36.068Z,39.07
2018-03-25T07:33:04.119Z,34.40
2018-03-25T07:35:32.339Z,30.40
2018-03-25T07:38:00.448Z,34.07
2018-03-25T07:40:28.541Z,33.60
2018-03-25T07:42:56.588Z,32.37
2018-03-25T07:45:24.696Z,30.53
2018-03-25T07:47:53.490Z,33.23
2018-03-25T07:50:22.308Z,31.67
2018-03-25T07:52:50.356Z,35.70
2018-03-25T07:55:18.484Z,34.37
2018-03-25T07:57:46.536Z,35.23
2018-03-25T08:00:14.662Z,36.43
2018-03-25T08:02:42.733Z,34.63
2018-03-25T08:05:10.824Z,35.30
2018-03-25T08:07:38.860Z,34.97
2018-03-25T08:10:06.918Z,32.80
2018-03-25T08:12:34.948Z,33.60
2018-03-25T08:15:03.764Z,30.73
2018-03-25T08:17:32.596Z,30.70
2018-03-25T08:20:00.667Z,29.80
2018-03-25T08:22:28.700Z,32.17
2018-03-25T08:24:56.928Z,31.40
2018-03-25T08:27:25.725Z,28.67
2018-03-25T08:29:54.524Z,30.13
2018-03-25T08:32:23.345Z,32.47
2018-03-25T08:34:51.396Z,31.07
2018-03-25T08:37:19.436Z,27.67
2018-03-25T08:39:47.463Z,31.23
2018-03-25T08:42:15.517Z,28.43
2018-03-25T08:44:43.548Z,29.47
2018-03-25T08:47:12.472Z,33.43
2018-03-25T08:49:40.516Z,30.17
2018-03-25T08:55:40.128Z,32.47
2018-03-25T08:58:08.190Z,30.50
2018-03-25T09:00:36.979Z,28.43
2018-03-25T09:03:05.027Z,31.33
2018-03-25T09:05:33.076Z,30.43
2018-03-25T09:08:01.108Z,30.33
2018-03-25T09:10:29.161Z,30.13
2018-03-25T09:12:57.208Z,29.77
2018-03-25T09:15:26.028Z,30.70
2018-03-25T09:17:54.066Z,32.30
2018-03-25T09:20:22.103Z,30.83
2018-03-25T09:22:50.159Z,33.17
2018-03-25T09:25:18.960Z,34.33
2018-03-25T09:27:47.787Z,30.27
2018-03-25T09:30:15.842Z,30.47
2018-03-25T09:32:44.639Z,30.50
2018-03-25T09:35:12.755Z,31.03
2018-03-25T09:37:40.801Z,30.43
2018-03-25T09:40:08.832Z,31.07
2018-03-25T09:42:36.885Z,32.23
2018-03-25T09:45:05.686Z,32.50
2018-03-25T09:47:33.741Z,31.00
2018-03-25T09:50:01.779Z,30.83
2018-03-25T09:52:29.862Z,31.57
2018-03-25T09:54:58.664Z,31.43
2018-03-25T09:57:26.751Z,30.20
2018-03-25T09:59:54.805Z,30.13
2018-03-25T10:02:26.769Z,31.10
2018-03-25T10:04:54.820Z,31.47
2018-03-25T10:07:22.859Z,34.57
2018-03-25T10:09:51.790Z,31.27
2018-03-25T10:12:19.827Z,30.00
2018-03-25T10:14:47.889Z,31.80
2018-03-25T10:17:15.923Z,32.77
2018-03-25T10:19:44.741Z,32.40
2018-03-25T10:22:12.803Z,32.30
2018-03-25T10:24:41.600Z,32.90
2018-03-25T10:27:11.252Z,30.80
2018-03-25T10:29:39.321Z,32.40
2018-03-25T10:32:08.144Z,29.87
2018-03-25T10:34:36.185Z,33.80
2018-03-25T10:37:04.268Z,30.33
2018-03-25T10:39:32.324Z,30.40
2018-03-25T10:42:00.383Z,33.40
2018-03-25T10:44:28.442Z,30.43
2018-03-25T10:46:57.284Z,32.37
2018-03-25T10:49:25.320Z,32.33
2018-03-25T10:51:54.128Z,30.50
2018-03-25T10:54:22.957Z,31.20
2018-03-25T10:56:51.057Z,33.77
2018-03-25T10:59:19.099Z,30.60
2018-03-25T11:01:47.908Z,28.73
2018-03-25T11:04:16.728Z,31.77
2018-03-25T11:06:44.796Z,31.40
2018-03-25T11:09:13.616Z,34.27
2018-03-25T11:11:41.891Z,32.73
2018-03-25T11:14:09.965Z,31.00
2018-03-25T11:16:38.771Z,33.77
2018-03-25T11:19:07.603Z,29.77
2018-03-25T11:21:35.647Z,33.40
2018-03-25T11:24:04.460Z,29.30
2018-03-25T11:26:33.283Z,31.07
2018-03-25T11:29:01.329Z,33.00
2018-03-25T11:31:30.156Z,33.03
2018-03-25T11:33:58.545Z,31.57
2018-03-25T11:36:26.591Z,31.70
2018-03-25T11:38:55.305Z,30.40
2018-03-25T11:41:23.344Z,29.87
2018-03-25T11:43:51.409Z,29.57
2018-03-25T11:46:19.456Z,28.97
2018-03-25T11:48:47.544Z,30.73
2018-03-25T11:51:16.368Z,27.60
2018-03-25T11:53:44.418Z,29.97
2018-03-25T11:56:12.472Z,31.80
2018-03-25T11:58:40.524Z,28.73
2018-03-25T12:01:08.792Z,31.40
2018-03-25T12:03:37.740Z,32.80
2018-03-25T12:06:05.788Z,31.33
2018-03-25T12:08:34.616Z,32.30
2018-03-25T12:11:02.657Z,31.07
2018-03-25T12:13:30.724Z,28.10
2018-03-25T12:15:58.823Z,32.00
2018-03-25T12:18:26.848Z,33.47
2018-03-25T12:20:54.908Z,31.20
2018-03-25T12:23:23.716Z,28.90
2018-03-25T12:25:52.551Z,30.53
2018-03-25T12:28:20.591Z,30.87
2018-03-25T12:30:49.421Z,30.37
2018-03-25T12:33:17.522Z,30.70
2018-03-25T12:35:45.524Z,29.97
2018-03-25T12:38:13.571Z,31.33
2018-03-25T12:40:41.623Z,31.13
2018-03-25T12:43:09.680Z,27.40
2018-03-25T12:45:37.733Z,29.07
2018-03-25T12:48:05.799Z,29.47
2018-03-25T12:50:34.617Z,30.80
2018-03-25T12:53:02.684Z,27.43
2018-03-25T12:55:31.497Z,30.40
2018-03-25T12:58:00.305Z,27.53
2018-03-25T13:00:28.371Z,29.40
2018-03-25T13:02:56.414Z,30.10
2018-03-25T13:05:24.665Z,29.90
2018-03-25T13:07:52.709Z,27.90
2018-03-25T13:10:20.787Z,30.00
2018-03-25T13:12:48.843Z,29.33
2018-03-25T13:15:16.882Z,31.67
2018-03-25T13:17:45.700Z,31.97
2018-03-25T13:20:13.791Z,29.50
2018-03-25T13:22:41.848Z,30.63
2018-03-25T13:25:10.673Z,32.30
2018-03-25T13:27:38.736Z,29.23
2018-03-25T13:30:07.540Z,29.27
2018-03-25T13:32:36.369Z,30.10
2018-03-25T13:35:04.425Z,32.63
2018-03-25T13:37:33.251Z,27.40
2018-03-25T13:40:01.294Z,28.43
2018-03-25T13:42:30.876Z,30.67
2018-03-25T13:44:58.924Z,28.47
2018-03-25T13:47:27.804Z,29.67
2018-03-25T13:49:55.865Z,31.63
2018-03-25T13:52:23.913Z,28.57
2018-03-25T13:54:51.971Z,30.30
2018-03-25T13:57:20.785Z,29.00
2018-03-25T13:59:49.620Z,29.27
2018-03-25T14:02:17.665Z,31.60
2018-03-25T14:04:46.489Z,28.70
2018-03-25T14:07:14.583Z,29.23
2018-03-25T14:09:42.821Z,28.37
2018-03-25T14:12:10.849Z,29.40
2018-03-25T14:14:38.924Z,26.20
2018-03-25T14:17:06.964Z,27.87
2018-03-25T14:19:36.520Z,26.70
2018-03-25T14:22:04.580Z,25.87
2018-03-25T14:24:32.630Z,27.70
2018-03-25T14:27:00.696Z,26.40
2018-03-25T14:29:28.739Z,25.43
2018-03-25T14:31:57.556Z,25.17
2018-03-25T14:34:26.374Z,25.17
2018-03-25T14:36:54.432Z,23.93
2018-03-25T14:39:23.268Z,22.43
2018-03-25T14:41:51.344Z,25.53
2018-03-25T14:44:19.404Z,26.17
2018-03-25T14:46:48.232Z,26.80
2018-03-25T14:49:16.272Z,26.40
2018-03-25T14:51:44.392Z,26.17
2018-03-25T14:54:12.460Z,27.47
2018-03-25T14:56:41.277Z,24.97
2018-03-25T14:59:10.084Z,25.10
2018-03-25T15:01:38.168Z,24.93
2018-03-25T15:04:06.264Z,25.27
2018-03-25T15:06:34.323Z,27.87
2018-03-25T15:09:03.153Z,25.70
2018-03-25T15:11:31.229Z,25.23
2018-03-25T15:14:00.038Z,26.00
2018-03-25T15:16:28.080Z,27.67
2018-03-25T15:18:56.141Z,26.57
2018-03-25T15:21:24.207Z,29.33
2018-03-25T15:23:52.252Z,28.63
2018-03-25T15:26:21.076Z,28.53
2018-03-25T15:28:49.145Z,28.77
2018-03-25T15:31:17.970Z,27.57
2018-03-25T15:33:46.113Z,28.73
2018-03-25T15:36:14.180Z,29.60
2018-03-25T15:38:42.238Z,26.60
2018-03-25T15:41:10.284Z,28.70
2018-03-25T15:43:39.108Z,26.83
2018-03-25T15:46:07.151Z,29.77
2018-03-25T15:48:35.313Z,31.10
2018-03-25T15:51:03.380Z,30.63
2018-03-25T15:53:31.417Z,28.27
2018-03-25T15:56:00.219Z,29.73
2018-03-25T15:58:29.064Z,28.90
2018-03-25T16:00:57.132Z,28.70
2018-03-25T16:03:25.976Z,28.13
2018-03-25T16:05:54.080Z,27.30
2018-03-25T16:08:22.140Z,27.70
2018-03-25T16:10:50.211Z,28.17
2018-03-25T16:13:18.253Z,26.60
2018-03-25T16:15:47.149Z,27.37
2018-03-25T16:18:15.979Z,26.23
2018-03-25T16:20:44.032Z,28.17
2018-03-25T16:23:13.600Z,27.90
2018-03-25T16:25:41.652Z,31.97
2018-03-25T16:28:10.469Z,32.40
2018-03-25T16:30:38.524Z,28.83
2018-03-25T16:33:06.568Z,27.67
2018-03-25T16:35:34.636Z,27.90
2018-03-25T16:38:02.683Z,30.07
2018-03-25T16:40:31.613Z,28.80
2018-03-25T16:42:59.656Z,29.43
2018-03-25T16:45:27.726Z,27.93
2018-03-25T16:47:55.787Z,27.60
2018-03-25T16:50:23.847Z,29.70
2018-03-25T16:52:51.884Z,29.47
2018-03-25T16:55:19.934Z,29.67
2018-03-25T16:57:48.001Z,27.73
2018-03-25T17:00:16.044Z,29.20
2018-03-25T17:02:44.108Z,27.33
2018-03-25T17:05:12.152Z,27.23
2018-03-25T17:07:40.216Z,32.47
2018-03-25T17:10:09.029Z,28.80
2018-03-25T17:12:37.860Z,25.33
2018-03-25T17:15:05.938Z,26.30
2018-03-25T17:17:33.980Z,24.87
2018-03-25T17:20:02.024Z,26.20
2018-03-25T17:22:30.091Z,25.13
2018-03-25T17:24:58.128Z,26.43
2018-03-25T17:27:26.192Z,25.57
2018-03-25T17:29:54.280Z,25.00
2018-03-25T17:32:22.340Z,25.40
2018-03-25T17:34:50.524Z,25.03
2018-03-25T17:37:18.584Z,25.57
2018-03-25T17:39:46.863Z,20.67
2018-03-25T17:42:15.660Z,24.70
2018-03-25T17:44:44.486Z,22.57
2018-03-25T17:47:12.568Z,23.67
2018-03-25T17:49:40.620Z,28.23
2018-03-25T17:52:08.656Z,31.10
2018-03-25T17:54:36.703Z,29.33
2018-03-25T17:57:05.512Z,28.80
2018-03-25T17:59:34.440Z,25.50
2018-03-25T18:02:02.571Z,25.20
2018-03-25T18:04:30.617Z,27.13
2018-03-25T18:06:58.669Z,26.00
2018-03-25T18:09:27.465Z,24.67
2018-03-25T18:11:56.280Z,25.20
2018-03-25T18:14:25.094Z,25.60
2018-03-25T18:16:53.898Z,25.33
2018-03-25T18:19:21.992Z,23.93
2018-03-25T18:21:50.752Z,23.93
2018-03-25T18:24:19.665Z,22.83
2018-03-25T18:26:47.612Z,23.13
2018-03-25T18:29:15.662Z,21.70
2018-03-25T18:31:43.700Z,22.13
2018-03-25T18:34:11.827Z,25.40
2018-03-25T18:36:39.900Z,22.27
2018-03-25T18:39:07.963Z,22.13
2018-03-25T18:41:36.776Z,21.37
2018-03-25T18:44:05.588Z,23.13
2018-03-25T18:46:33.685Z,20.77
2018-03-25T18:49:02.481Z,22.20
2018-03-25T18:51:31.350Z,22.80
2018-03-25T18:53:59.464Z,20.47
2018-03-25T18:56:27.508Z,21.57
2018-03-25T18:58:55.556Z,22.43
2018-03-25T19:01:23.602Z,24.40
2018-03-25T19:03:51.643Z,22.50
2018-03-25T19:06:19.704Z,23.17
2018-03-25T19:08:47.776Z,22.57
2018-03-25T19:11:15.809Z,22.70
2018-03-25T19:13:43.860Z,23.90
2018-03-25T19:16:11.892Z,22.77
2018-03-25T19:18:40.013Z,22.83
2018-03-25T19:21:08.048Z,22.97
2018-03-25T19:23:36.100Z,24.73
2018-03-25T19:26:04.132Z,22.97
2018-03-25T19:28:32.360Z,23.37
2018-03-25T19:31:01.164Z,22.03
2018-03-25T19:33:29.203Z,23.70
2018-03-25T19:35:57.259Z,25.07
2018-03-25T19:38:25.324Z,22.07
2018-03-25T19:40:53.364Z,24.43
2018-03-25T19:43:22.179Z,22.70
2018-03-25T19:45:51.837Z,22.57
2018-03-25T19:48:19.988Z,25.57
2018-03-25T19:50:48.807Z,24.83
2018-03-25T19:53:16.832Z,22.43
2018-03-25T19:55:44.968Z,25.17
2018-03-25T19:58:13.033Z,26.17
2018-03-25T20:00:41.071Z,23.73
2018-03-25T20:03:09.115Z,27.57
2018-03-25T20:05:37.916Z,22.00
2018-03-25T20:08:06.727Z,25.30
2018-03-25T20:10:34.783Z,26.30
2018-03-25T20:13:02.844Z,25.17
2018-03-25T20:15:30.880Z,25.33
2018-03-25T20:17:58.916Z,23.73
2018-03-25T20:20:26.967Z,24.37
2018-03-25T20:22:55.026Z,26.77
2018-03-25T20:25:23.821Z,24.03
2018-03-25T20:27:52.649Z,25.37
2018-03-25T20:30:20.688Z,24.60
2018-03-25T20:32:49.508Z,25.97
2018-03-25T20:35:18.304Z,27.23
2018-03-25T20:37:47.130Z,23.77
2018-03-25T20:40:15.189Z,25.23
2018-03-25T20:42:43.995Z,24.30
2018-03-25T20:45:12.814Z,26.93
2018-03-25T20:47:40.864Z,25.37
2018-03-25T20:50:08.916Z,24.77
2018-03-25T20:52:36.964Z,23.10
2018-03-25T20:55:05.042Z,23.20
2018-03-25T20:57:33.832Z,25.17
2018-03-25T21:00:02.688Z,25.67
2018-03-25T21:02:30.721Z,24.40
2018-03-25T21:04:59.543Z,25.17
2018-03-25T21:07:27.580Z,23.60
2018-03-25T21:09:55.668Z,24.50
2018-03-25T21:12:23.700Z,24.30
2018-03-25T21:14:51.733Z,26.83
2018-03-25T21:17:19.795Z,23.90
2018-03-25T21:19:47.827Z,26.40
2018-03-25T21:22:16.638Z,25.80
2018-03-25T21:24:45.446Z,23.83
2018-03-25T21:27:14.240Z,25.10
2018-03-25T21:29:43.053Z,23.90
2018-03-25T21:32:11.092Z,24.60
2018-03-25T21:34:39.145Z,24.83
2018-03-25T21:37:07.187Z,25.37
2018-03-25T21:39:36.014Z,24.20
2018-03-25T21:42:04.823Z,22.87
2018-03-25T21:44:32.861Z,22.57
2018-03-25T21:47:00.912Z,22.70
2018-03-25T21:49:28.968Z,22.43
2018-03-25T21:51:57.024Z,27.43
2018-03-25T21:54:25.059Z,26.90
2018-03-25T21:56:53.121Z,27.13
2018-03-25T21:59:21.159Z,26.90
2018-03-25T22:01:49.285Z,25.50
2018-03-25T22:04:17.344Z,27.20
2018-03-25T22:06:46.143Z,26.33
2018-03-25T22:09:14.185Z,26.47
2018-03-25T22:11:42.241Z,24.50
2018-03-25T22:14:10.279Z,27.27
2018-03-25T22:16:38.334Z,25.23
2018-03-25T22:19:06.368Z,26.90
2018-03-25T22:21:35.183Z,25.37
2018-03-25T22:24:03.994Z,25.37
2018-03-25T22:26:32.796Z,26.57
2018-03-25T22:29:00.844Z,23.27
2018-03-25T22:31:28.884Z,22.00
2018-03-25T22:33:56.955Z,24.40
2018-03-25T22:36:24.984Z,26.00
2018-03-25T22:38:53.032Z,24.17
2018-03-25T22:41:21.069Z,26.40
2018-03-25T22:43:49.126Z,29.27
2018-03-25T22:46:17.184Z,27.53
2018-03-25T22:48:45.211Z,27.97
2018-03-25T22:51:13.275Z,27.70
2018-03-25T22:53:41.303Z,25.17
2018-03-25T22:56:10.104Z,24.80
2018-03-25T22:58:38.912Z,27.23
2018-03-25T23:01:07.715Z,27.50
2018-03-25T23:03:36.532Z,28.57
2018-03-25T23:06:04.572Z,26.57
2018-03-25T23:08:32.619Z,27.27
2018-03-25T23:11:00.676Z,25.70
2018-03-25T23:13:29.479Z,31.23
2018-03-25T23:15:57.538Z,28.20
2018-03-25T23:18:25.567Z,27.63
2018-03-25T23:20:53.621Z,30.63
2018-03-25T23:23:22.520Z,24.33
2018-03-25T23:25:51.332Z,26.00
2018-03-25T23:28:20.162Z,27.97
2018-03-25T23:30:48.194Z,30.90
2018-03-25T23:33:16.236Z,26.93
2018-03-25T23:35:44.288Z,26.43
2018-03-25T23:38:13.128Z,28.87
2018-03-25T23:40:41.165Z,26.97
2018-03-25T23:43:09.981Z,28.30
2018-03-25T23:45:38.804Z,31.13
2018-03-25T23:48:06.862Z,29.97
2018-03-25T23:50:35.669Z,29.93
2018-03-25T23:53:04.464Z,29.30
2018-03-25T23:55:33.301Z,30.83
2018-03-25T23:58:01.371Z,31.47
